sensor_id;sensor_type;location;lat;lon;timestamp;pressure;altitude;pressure_sealevel;temperature;humidity
77323;BME280;66384;51.052;9.850;2023-07-13T00:01:20;98454.40;;;18.14;54.47
77323;BME280;66384;51.052;9.850;2023-07-13T00:03:54;98462.20;;;18.17;54.59
77323;BME280;66384;51.052;9.850;2023-07-13T00:06:26;98462.89;;;18.17;54.57
77323;BME280;66384;51.052;9.850;2023-07-13T00:09:00;98463.09;;;18.16;54.57
77323;BME280;66384;51.052;9.850;2023-07-13T00:11:31;98461.16;;;18.15;54.57
77323;BME280;66384;51.052;9.850;2023-07-13T00:14:03;98462.56;;;18.15;54.69
77323;BME280;66384;51.052;9.850;2023-07-13T00:16:37;98457.15;;;18.17;54.76
77323;BME280;66384;51.052;9.850;2023-07-13T00:19:09;98456.95;;;18.20;54.57
77323;BME280;66384;51.052;9.850;2023-07-13T00:21:42;98458.16;;;18.22;54.42
77323;BME280;66384;51.052;9.850;2023-07-13T00:24:15;98449.98;;;18.23;54.37
77323;BME280;66384;51.052;9.850;2023-07-13T00:26:48;98453.61;;;18.25;54.38
77323;BME280;66384;51.052;9.850;2023-07-13T00:29:20;98455.17;;;18.26;54.38
77323;BME280;66384;51.052;9.850;2023-07-13T00:31:52;98458.14;;;18.24;54.41
77323;BME280;66384;51.052;9.850;2023-07-13T00:34:23;98459.55;;;18.22;54.35
77323;BME280;66384;51.052;9.850;2023-07-13T00:36:55;98458.35;;;18.20;54.49
77323;BME280;66384;51.052;9.850;2023-07-13T00:39:27;98457.15;;;18.18;54.92
77323;BME280;66384;51.052;9.850;2023-07-13T00:41:58;98455.44;;;18.14;55.17
77323;BME280;66384;51.052;9.850;2023-07-13T00:44:30;98452.17;;;18.09;55.36
77323;BME280;66384;51.052;9.850;2023-07-13T00:47:02;98455.68;;;18.04;55.69
77323;BME280;66384;51.052;9.850;2023-07-13T00:49:35;98457.11;;;17.99;55.87
77323;BME280;66384;51.052;9.850;2023-07-13T00:52:08;98459.73;;;17.97;55.93
77323;BME280;66384;51.052;9.850;2023-07-13T00:54:44;98459.92;;;17.95;56.08
77323;BME280;66384;51.052;9.850;2023-07-13T00:57:20;98466.04;;;17.93;56.21
77323;BME280;66384;51.052;9.850;2023-07-13T00:59:55;98465.00;;;17.91;56.12
77323;BME280;66384;51.052;9.850;2023-07-13T01:02:29;98464.31;;;17.91;56.16
77323;BME280;66384;51.052;9.850;2023-07-13T01:05:01;98460.31;;;17.90;56.18
77323;BME280;66384;51.052;9.850;2023-07-13T01:07:33;98462.75;;;17.89;56.30
77323;BME280;66384;51.052;9.850;2023-07-13T01:10:05;98459.45;;;17.88;56.13
77323;BME280;66384;51.052;9.850;2023-07-13T01:12:37;98453.39;;;17.85;56.22
77323;BME280;66384;51.052;9.850;2023-07-13T01:15:39;98464.20;;;17.83;56.17
77323;BME280;66384;51.052;9.850;2023-07-13T01:18:14;98467.70;;;17.78;56.25
77323;BME280;66384;51.052;9.850;2023-07-13T01:21:04;98466.83;;;17.73;56.43
77323;BME280;66384;51.052;9.850;2023-07-13T01:23:35;98470.17;;;17.66;56.55
77323;BME280;66384;51.052;9.850;2023-07-13T01:26:07;98470.05;;;17.58;56.83
77323;BME280;66384;51.052;9.850;2023-07-13T01:28:39;98467.48;;;17.50;56.86
77323;BME280;66384;51.052;9.850;2023-07-13T01:31:10;98464.73;;;17.44;56.88
77323;BME280;66384;51.052;9.850;2023-07-13T01:33:42;98462.84;;;17.41;57.05
77323;BME280;66384;51.052;9.850;2023-07-13T01:36:14;98459.89;;;17.39;56.93
77323;BME280;66384;51.052;9.850;2023-07-13T01:38:46;98456.60;;;17.37;57.24
77323;BME280;66384;51.052;9.850;2023-07-13T01:41:17;98456.27;;;17.33;57.23
77323;BME280;66384;51.052;9.850;2023-07-13T01:43:49;98449.50;;;17.32;57.40
77323;BME280;66384;51.052;9.850;2023-07-13T01:46:21;98456.63;;;17.30;57.40
77323;BME280;66384;51.052;9.850;2023-07-13T01:48:53;98461.86;;;17.28;57.62
77323;BME280;66384;51.052;9.850;2023-07-13T01:51:25;98463.77;;;17.25;57.60
77323;BME280;66384;51.052;9.850;2023-07-13T01:53:56;98470.05;;;17.21;57.57
77323;BME280;66384;51.052;9.850;2023-07-13T01:56:28;98471.98;;;17.19;57.45
77323;BME280;66384;51.052;9.850;2023-07-13T01:58:59;98471.98;;;17.15;57.47
77323;BME280;66384;51.052;9.850;2023-07-13T02:01:30;98469.05;;;17.12;57.64
77323;BME280;66384;51.052;9.850;2023-07-13T02:04:03;98467.66;;;17.07;57.68
77323;BME280;66384;51.052;9.850;2023-07-13T02:06:35;98473.94;;;17.03;57.61
77323;BME280;66384;51.052;9.850;2023-07-13T02:09:06;98476.73;;;17.01;57.68
77323;BME280;66384;51.052;9.850;2023-07-13T02:11:38;98474.13;;;16.99;57.71
77323;BME280;66384;51.052;9.850;2023-07-13T02:14:09;98471.55;;;16.92;57.66
77323;BME280;66384;51.052;9.850;2023-07-13T02:16:41;98473.64;;;16.85;57.75
77323;BME280;66384;51.052;9.850;2023-07-13T02:19:13;98474.36;;;16.77;57.70
77323;BME280;66384;51.052;9.850;2023-07-13T02:21:44;98470.70;;;16.71;57.69
77323;BME280;66384;51.052;9.850;2023-07-13T02:24:16;98465.49;;;16.65;57.80
77323;BME280;66384;51.052;9.850;2023-07-13T02:26:49;98466.02;;;16.58;57.84
77323;BME280;66384;51.052;9.850;2023-07-13T02:29:22;98467.59;;;16.55;57.90
77323;BME280;66384;51.052;9.850;2023-07-13T02:31:53;98466.91;;;16.50;57.96
77323;BME280;66384;51.052;9.850;2023-07-13T02:34:25;98468.83;;;16.48;58.06
77323;BME280;66384;51.052;9.850;2023-07-13T02:36:56;98465.02;;;16.45;58.11
77323;BME280;66384;51.052;9.850;2023-07-13T02:39:28;98463.98;;;16.43;58.09
77323;BME280;66384;51.052;9.850;2023-07-13T02:41:59;98465.54;;;16.43;58.09
77323;BME280;66384;51.052;9.850;2023-07-13T02:44:31;98464.66;;;16.41;58.14
77323;BME280;66384;51.052;9.850;2023-07-13T02:47:02;98461.87;;;16.38;58.11
77323;BME280;66384;51.052;9.850;2023-07-13T02:49:34;98461.89;;;16.36;58.10
77323;BME280;66384;51.052;9.850;2023-07-13T02:52:07;98465.02;;;16.36;58.18
77323;BME280;66384;51.052;9.850;2023-07-13T02:54:38;98460.66;;;16.35;58.16
77323;BME280;66384;51.052;9.850;2023-07-13T02:57:10;98461.55;;;16.35;58.18
77323;BME280;66384;51.052;9.850;2023-07-13T02:59:41;98464.14;;;16.35;58.18
77323;BME280;66384;51.052;9.850;2023-07-13T03:02:13;98471.77;;;16.37;58.12
77323;BME280;66384;51.052;9.850;2023-07-13T03:04:45;98472.99;;;16.40;58.22
77323;BME280;66384;51.052;9.850;2023-07-13T03:07:17;98468.99;;;16.41;57.99
77323;BME280;66384;51.052;9.850;2023-07-13T03:09:48;98471.61;;;16.43;58.07
77323;BME280;66384;51.052;9.850;2023-07-13T03:12:20;98475.77;;;16.45;58.11
77323;BME280;66384;51.052;9.850;2023-07-13T03:14:51;98477.67;;;16.47;58.01
77323;BME280;66384;51.052;9.850;2023-07-13T03:17:23;98479.93;;;16.50;58.21
77323;BME280;66384;51.052;9.850;2023-07-13T03:19:54;98481.33;;;16.51;58.17
77323;BME280;66384;51.052;9.850;2023-07-13T03:22:27;98486.17;;;16.50;58.23
77323;BME280;66384;51.052;9.850;2023-07-13T03:24:59;98489.83;;;16.48;58.19
77323;BME280;66384;51.052;9.850;2023-07-13T03:27:30;98485.48;;;16.45;58.00
77323;BME280;66384;51.052;9.850;2023-07-13T03:30:03;98488.27;;;16.41;58.13
77323;BME280;66384;51.052;9.850;2023-07-13T03:32:34;98491.73;;;16.37;58.04
77323;BME280;66384;51.052;9.850;2023-07-13T03:35:08;98497.64;;;16.35;58.19
77323;BME280;66384;51.052;9.850;2023-07-13T03:37:39;98499.20;;;16.32;58.23
77323;BME280;66384;51.052;9.850;2023-07-13T03:40:14;98502.68;;;16.30;58.24
77323;BME280;66384;51.052;9.850;2023-07-13T03:42:47;98506.33;;;16.28;58.21
77323;BME280;66384;51.052;9.850;2023-07-13T03:45:19;98507.89;;;16.27;58.27
77323;BME280;66384;51.052;9.850;2023-07-13T03:47:50;98512.74;;;16.27;58.41
77323;BME280;66384;51.052;9.850;2023-07-13T03:50:22;98513.78;;;16.24;58.44
77323;BME280;66384;51.052;9.850;2023-07-13T03:52:53;98519.34;;;16.22;58.37
77323;BME280;66384;51.052;9.850;2023-07-13T03:55:26;98522.46;;;16.22;58.55
77323;BME280;66384;51.052;9.850;2023-07-13T03:58:06;98522.45;;;16.20;58.70
77323;BME280;66384;51.052;9.850;2023-07-13T04:00:52;98526.62;;;16.17;58.73
77323;BME280;66384;51.052;9.850;2023-07-13T04:03:24;98530.61;;;16.14;58.73
77323;BME280;66384;51.052;9.850;2023-07-13T04:05:56;98536.67;;;16.13;58.83
77323;BME280;66384;51.052;9.850;2023-07-13T04:08:32;98535.97;;;16.09;58.66
77323;BME280;66384;51.052;9.850;2023-07-13T04:11:04;98535.27;;;16.07;58.86
77323;BME280;66384;51.052;9.850;2023-07-13T04:13:36;98535.27;;;16.04;58.82
77323;BME280;66384;51.052;9.850;2023-07-13T04:16:07;98543.09;;;16.04;58.83
77323;BME280;66384;51.052;9.850;2023-07-13T04:18:39;98541.70;;;16.07;58.79
77323;BME280;66384;51.052;9.850;2023-07-13T04:21:11;98541.36;;;16.10;58.74
77323;BME280;66384;51.052;9.850;2023-07-13T04:23:43;98545.35;;;16.12;58.99
77323;BME280;66384;51.052;9.850;2023-07-13T04:26:14;98548.48;;;16.17;58.74
77323;BME280;66384;51.052;9.850;2023-07-13T04:28:46;98554.20;;;16.22;58.85
77323;BME280;66384;51.052;9.850;2023-07-13T04:31:18;98551.96;;;16.24;58.83
77323;BME280;66384;51.052;9.850;2023-07-13T04:33:50;98550.40;;;16.26;59.03
77323;BME280;66384;51.052;9.850;2023-07-13T04:36:23;98553.54;;;16.27;59.10
77323;BME280;66384;51.052;9.850;2023-07-13T04:38:57;98555.26;;;16.28;59.20
77323;BME280;66384;51.052;9.850;2023-07-13T04:41:28;98552.48;;;16.29;59.20
77323;BME280;66384;51.052;9.850;2023-07-13T04:44:00;98557.87;;;16.30;59.30
77323;BME280;66384;51.052;9.850;2023-07-13T04:46:33;98553.54;;;16.32;59.35
77323;BME280;66384;51.052;9.850;2023-07-13T04:49:05;98551.45;;;16.31;59.44
77323;BME280;66384;51.052;9.850;2023-07-13T04:51:36;98553.17;;;16.32;59.43
77323;BME280;66384;51.052;9.850;2023-07-13T04:54:08;98556.65;;;16.34;59.46
77323;BME280;66384;51.052;9.850;2023-07-13T04:56:40;98550.93;;;16.35;59.61
77323;BME280;66384;51.052;9.850;2023-07-13T04:59:12;98556.65;;;16.38;59.56
77323;BME280;66384;51.052;9.850;2023-07-13T05:01:43;98557.88;;;16.39;59.53
77323;BME280;66384;51.052;9.850;2023-07-13T05:04:16;98560.14;;;16.42;59.59
77323;BME280;66384;51.052;9.850;2023-07-13T05:06:47;98556.14;;;16.44;59.92
77323;BME280;66384;51.052;9.850;2023-07-13T05:09:19;98550.92;;;16.46;59.88
77323;BME280;66384;51.052;9.850;2023-07-13T05:11:50;98550.93;;;16.48;59.96
77323;BME280;66384;51.052;9.850;2023-07-13T05:14:22;98552.84;;;16.52;60.00
77323;BME280;66384;51.052;9.850;2023-07-13T05:16:53;98551.46;;;16.61;60.02
77323;BME280;66384;51.052;9.850;2023-07-13T05:19:27;98553.88;;;16.70;60.06
77323;BME280;66384;51.052;9.850;2023-07-13T05:21:59;98549.22;;;16.79;60.07
77323;BME280;66384;51.052;9.850;2023-07-13T05:24:30;98550.41;;;16.89;59.95
77323;BME280;66384;51.052;9.850;2023-07-13T05:27:02;98554.05;;;16.99;60.00
77323;BME280;66384;51.052;9.850;2023-07-13T05:29:34;98548.48;;;17.11;59.93
77323;BME280;66384;51.052;9.850;2023-07-13T05:32:06;98547.40;;;17.22;59.73
77323;BME280;66384;51.052;9.850;2023-07-13T05:34:38;98544.92;;;17.34;59.72
77323;BME280;66384;51.052;9.850;2023-07-13T05:37:10;98548.87;;;17.48;59.44
77323;BME280;66384;51.052;9.850;2023-07-13T05:39:41;98550.23;;;17.58;59.28
77323;BME280;66384;51.052;9.850;2023-07-13T05:42:13;98553.48;;;17.66;58.69
77323;BME280;66384;51.052;9.850;2023-07-13T05:44:45;98552.95;;;17.71;57.75
77323;BME280;66384;51.052;9.850;2023-07-13T05:47:16;98554.14;;;17.77;57.43
77323;BME280;66384;51.052;9.850;2023-07-13T05:49:48;98556.74;;;17.84;56.85
77323;BME280;66384;51.052;9.850;2023-07-13T05:52:20;98563.66;;;17.91;56.17
77323;BME280;66384;51.052;9.850;2023-07-13T05:54:51;98561.53;;;17.98;55.89
77323;BME280;66384;51.052;9.850;2023-07-13T05:57:23;98565.16;;;18.04;55.24
77323;BME280;66384;51.052;9.850;2023-07-13T05:59:54;98566.00;;;18.08;55.05
77323;BME280;66384;51.052;9.850;2023-07-13T06:02:27;98569.09;;;18.14;54.83
77323;BME280;66384;51.052;9.850;2023-07-13T06:04:59;98575.52;;;18.19;54.44
77323;BME280;66384;51.052;9.850;2023-07-13T06:07:31;98574.43;;;18.23;54.26
77323;BME280;66384;51.052;9.850;2023-07-13T06:10:03;98573.70;;;18.28;53.98
77323;BME280;66384;51.052;9.850;2023-07-13T06:12:35;98569.52;;;18.30;53.76
77323;BME280;66384;51.052;9.850;2023-07-13T06:15:09;98573.50;;;18.33;53.75
77323;BME280;66384;51.052;9.850;2023-07-13T06:17:41;98577.48;;;18.38;53.58
77323;BME280;66384;51.052;9.850;2023-07-13T06:20:13;98572.36;;;18.45;53.17
77323;BME280;66384;51.052;9.850;2023-07-13T06:22:45;98571.29;;;18.51;52.78
77323;BME280;66384;51.052;9.850;2023-07-13T06:25:17;98565.88;;;18.53;52.60
77323;BME280;66384;51.052;9.850;2023-07-13T06:27:49;98570.54;;;18.57;52.55
77323;BME280;66384;51.052;9.850;2023-07-13T06:30:20;98570.17;;;18.60;52.55
77323;BME280;66384;51.052;9.850;2023-07-13T06:32:52;98568.91;;;18.63;52.84
77323;BME280;66384;51.052;9.850;2023-07-13T06:35:24;98575.66;;;18.69;52.84
77323;BME280;66384;51.052;9.850;2023-07-13T06:37:56;98578.80;;;18.70;52.50
77323;BME280;66384;51.052;9.850;2023-07-13T06:40:27;98581.94;;;18.68;52.24
77323;BME280;66384;51.052;9.850;2023-07-13T06:43:00;98586.11;;;18.69;52.56
77323;BME280;66384;51.052;9.850;2023-07-13T06:45:34;98586.45;;;18.71;52.25
77323;BME280;66384;51.052;9.850;2023-07-13T06:48:06;98585.21;;;18.76;51.70
77323;BME280;66384;51.052;9.850;2023-07-13T06:50:38;98585.52;;;18.82;51.19
77323;BME280;66384;51.052;9.850;2023-07-13T06:53:11;98586.15;;;18.89;50.86
77323;BME280;66384;51.052;9.850;2023-07-13T06:55:45;98589.92;;;18.96;50.57
77323;BME280;66384;51.052;9.850;2023-07-13T06:58:17;98586.20;;;19.01;50.42
77323;BME280;66384;51.052;9.850;2023-07-13T07:00:51;98585.09;;;19.08;50.15
77323;BME280;66384;51.052;9.850;2023-07-13T07:03:23;98583.64;;;19.15;50.02
77323;BME280;66384;51.052;9.850;2023-07-13T07:05:55;98583.40;;;19.21;49.70
77323;BME280;66384;51.052;9.850;2023-07-13T07:08:31;98585.45;;;19.25;49.40
77323;BME280;66384;51.052;9.850;2023-07-13T07:11:02;98589.23;;;19.31;49.71
77323;BME280;66384;51.052;9.850;2023-07-13T07:13:34;98589.51;;;19.37;49.39
77323;BME280;66384;51.052;9.850;2023-07-13T07:16:06;98588.60;;;19.40;48.49
77323;BME280;66384;51.052;9.850;2023-07-13T07:18:38;98589.12;;;19.41;48.07
77323;BME280;66384;51.052;9.850;2023-07-13T07:21:10;98589.98;;;19.42;47.72
77323;BME280;66384;51.052;9.850;2023-07-13T07:23:43;98590.85;;;19.42;47.81
77323;BME280;66384;51.052;9.850;2023-07-13T07:26:14;98589.73;;;19.47;47.60
77323;BME280;66384;51.052;9.850;2023-07-13T07:28:46;98590.91;;;19.52;47.39
77323;BME280;66384;51.052;9.850;2023-07-13T07:31:37;98594.84;;;19.60;47.60
77323;BME280;66384;51.052;9.850;2023-07-13T07:34:12;98598.56;;;19.71;47.19
77323;BME280;66384;51.052;9.850;2023-07-13T07:36:44;98596.57;;;19.78;46.60
77323;BME280;66384;51.052;9.850;2023-07-13T07:39:18;98600.86;;;19.83;46.03
77323;BME280;66384;51.052;9.850;2023-07-13T07:41:50;98600.33;;;19.85;45.90
77323;BME280;66384;51.052;9.850;2023-07-13T07:44:24;98601.53;;;19.86;45.93
77323;BME280;66384;51.052;9.850;2023-07-13T07:46:57;98597.60;;;19.92;46.29
77323;BME280;66384;51.052;9.850;2023-07-13T07:49:29;98598.86;;;20.03;46.16
77323;BME280;66384;51.052;9.850;2023-07-13T07:52:01;98601.52;;;20.14;45.54
77323;BME280;66384;51.052;9.850;2023-07-13T07:54:32;98608.20;;;20.22;45.26
77323;BME280;66384;51.052;9.850;2023-07-13T07:57:09;98605.31;;;20.29;45.19
77323;BME280;66384;51.052;9.850;2023-07-13T07:59:43;98606.23;;;20.37;44.98
77323;BME280;66384;51.052;9.850;2023-07-13T08:02:17;98601.80;;;20.42;44.92
77323;BME280;66384;51.052;9.850;2023-07-13T08:04:52;98604.81;;;20.51;44.85
77323;BME280;66384;51.052;9.850;2023-07-13T08:07:27;98608.77;;;20.58;44.76
77323;BME280;66384;51.052;9.850;2023-07-13T08:09:59;98609.89;;;20.63;44.70
77323;BME280;66384;51.052;9.850;2023-07-13T08:12:30;98611.44;;;20.65;44.42
77323;BME280;66384;51.052;9.850;2023-07-13T08:15:09;98605.44;;;20.69;44.56
77323;BME280;66384;51.052;9.850;2023-07-13T08:17:41;98606.90;;;20.75;44.69
77323;BME280;66384;51.052;9.850;2023-07-13T08:20:14;98608.52;;;20.83;44.69
77323;BME280;66384;51.052;9.850;2023-07-13T08:22:46;98609.09;;;20.91;44.52
77323;BME280;66384;51.052;9.850;2023-07-13T08:25:18;98605.65;;;20.98;44.44
77323;BME280;66384;51.052;9.850;2023-07-13T08:27:51;98606.72;;;21.07;44.25
77323;BME280;66384;51.052;9.850;2023-07-13T08:30:22;98610.60;;;21.15;44.10
77323;BME280;66384;51.052;9.850;2023-07-13T08:32:54;98607.30;;;21.23;43.69
77323;BME280;66384;51.052;9.850;2023-07-13T08:35:26;98605.84;;;21.27;43.40
77323;BME280;66384;51.052;9.850;2023-07-13T08:37:57;98608.69;;;21.33;42.97
77323;BME280;66384;51.052;9.850;2023-07-13T08:40:30;98607.94;;;21.37;42.80
77323;BME280;66384;51.052;9.850;2023-07-13T08:43:02;98607.09;;;21.37;42.36
77323;BME280;66384;51.052;9.850;2023-07-13T08:45:41;98612.34;;;21.34;41.91
77323;BME280;66384;51.052;9.850;2023-07-13T08:48:18;98608.25;;;21.28;41.72
77323;BME280;66384;51.052;9.850;2023-07-13T08:50:55;98605.85;;;21.26;41.95
77323;BME280;66384;51.052;9.850;2023-07-13T08:53:35;98603.86;;;21.30;42.06
77323;BME280;66384;51.052;9.850;2023-07-13T08:56:08;98605.38;;;21.33;42.20
77323;BME280;66384;51.052;9.850;2023-07-13T08:58:42;98608.11;;;21.38;41.89
77323;BME280;66384;51.052;9.850;2023-07-13T09:01:19;98612.38;;;21.44;42.00
77323;BME280;66384;51.052;9.850;2023-07-13T09:03:59;98608.92;;;21.50;41.86
77323;BME280;66384;51.052;9.850;2023-07-13T09:06:40;98606.19;;;21.56;41.88
77323;BME280;66384;51.052;9.850;2023-07-13T09:09:23;98604.11;;;21.64;41.81
77323;BME280;66384;51.052;9.850;2023-07-13T09:12:02;98605.91;;;21.70;41.45
77323;BME280;66384;51.052;9.850;2023-07-13T09:14:43;98614.14;;;21.78;41.32
77323;BME280;66384;51.052;9.850;2023-07-13T09:17:20;98611.09;;;21.83;41.55
77323;BME280;66384;51.052;9.850;2023-07-13T09:19:57;98614.70;;;21.86;40.74
77323;BME280;66384;51.052;9.850;2023-07-13T09:22:35;98612.91;;;21.88;40.49
77323;BME280;66384;51.052;9.850;2023-07-13T09:25:22;98607.58;;;21.91;40.64
77323;BME280;66384;51.052;9.850;2023-07-13T09:27:58;98612.61;;;21.93;40.76
77323;BME280;66384;51.052;9.850;2023-07-13T09:30:36;98608.91;;;21.95;40.38
77323;BME280;66384;51.052;9.850;2023-07-13T09:33:10;98607.60;;;21.98;40.42
77323;BME280;66384;51.052;9.850;2023-07-13T09:35:42;98609.48;;;22.01;39.85
77323;BME280;66384;51.052;9.850;2023-07-13T09:38:16;98606.70;;;21.99;39.66
77323;BME280;66384;51.052;9.850;2023-07-13T09:41:09;98615.36;;;21.96;39.78
77323;BME280;66384;51.052;9.850;2023-07-13T09:44:06;98618.31;;;21.89;39.58
77323;BME280;66384;51.052;9.850;2023-07-13T09:46:43;98616.39;;;21.89;39.69
77323;BME280;66384;51.052;9.850;2023-07-13T09:49:16;98612.90;;;21.88;40.08
77323;BME280;66384;51.052;9.850;2023-07-13T09:51:47;98614.02;;;21.93;40.05
77323;BME280;66384;51.052;9.850;2023-07-13T09:54:23;98612.21;;;21.96;39.80
77323;BME280;66384;51.052;9.850;2023-07-13T09:56:59;98614.41;;;22.00;39.83
77323;BME280;66384;51.052;9.850;2023-07-13T09:59:33;98619.00;;;22.05;39.77
77323;BME280;66384;51.052;9.850;2023-07-13T10:02:24;98618.30;;;22.15;40.02
77323;BME280;66384;51.052;9.850;2023-07-13T10:05:01;98614.38;;;22.27;39.73
77323;BME280;66384;51.052;9.850;2023-07-13T10:07:37;98614.80;;;22.39;39.92
77323;BME280;66384;51.052;9.850;2023-07-13T10:10:16;98609.77;;;22.52;39.51
77323;BME280;66384;51.052;9.850;2023-07-13T10:12:49;98609.20;;;22.61;39.30
77323;BME280;66384;51.052;9.850;2023-07-13T10:15:23;98614.91;;;22.72;38.88
77323;BME280;66384;51.052;9.850;2023-07-13T10:17:56;98615.64;;;22.78;38.66
77323;BME280;66384;51.052;9.850;2023-07-13T10:20:29;98611.58;;;22.79;38.61
77323;BME280;66384;51.052;9.850;2023-07-13T10:23:04;98609.73;;;22.82;38.55
77323;BME280;66384;51.052;9.850;2023-07-13T10:25:39;98611.62;;;22.84;38.13
77323;BME280;66384;51.052;9.850;2023-07-13T10:28:19;98605.53;;;22.89;38.35
77323;BME280;66384;51.052;9.850;2023-07-13T10:30:54;98602.58;;;22.96;38.39
77323;BME280;66384;51.052;9.850;2023-07-13T10:33:28;98606.58;;;23.05;37.65
77323;BME280;66384;51.052;9.850;2023-07-13T10:36:07;98612.71;;;23.11;37.19
77323;BME280;66384;51.052;9.850;2023-07-13T10:38:48;98614.69;;;23.16;37.59
77323;BME280;66384;51.052;9.850;2023-07-13T10:41:22;98616.83;;;23.22;37.28
77323;BME280;66384;51.052;9.850;2023-07-13T10:43:56;98610.79;;;23.25;36.66
77323;BME280;66384;51.052;9.850;2023-07-13T10:46:29;98613.68;;;23.28;37.00
77323;BME280;66384;51.052;9.850;2023-07-13T10:49:04;98609.05;;;23.31;36.86
77323;BME280;66384;51.052;9.850;2023-07-13T10:51:36;98611.73;;;23.35;37.09
77323;BME280;66384;51.052;9.850;2023-07-13T10:54:18;98606.34;;;23.40;36.85
77323;BME280;66384;51.052;9.850;2023-07-13T10:57:06;98615.05;;;23.43;36.80
77323;BME280;66384;51.052;9.850;2023-07-13T10:59:39;98618.91;;;23.43;36.64
77323;BME280;66384;51.052;9.850;2023-07-13T11:02:21;98617.51;;;23.43;36.26
77323;BME280;66384;51.052;9.850;2023-07-13T11:04:55;98611.41;;;23.41;35.90
77323;BME280;66384;51.052;9.850;2023-07-13T11:07:29;98610.92;;;23.46;36.13
77323;BME280;66384;51.052;9.850;2023-07-13T11:10:09;98612.79;;;23.54;36.22
77323;BME280;66384;51.052;9.850;2023-07-13T11:12:58;98613.74;;;23.65;36.08
77323;BME280;66384;51.052;9.850;2023-07-13T11:15:39;98612.02;;;23.71;35.37
77323;BME280;66384;51.052;9.850;2023-07-13T11:18:23;98612.44;;;23.75;35.83
77323;BME280;66384;51.052;9.850;2023-07-13T11:21:13;98612.86;;;23.78;35.47
77323;BME280;66384;51.052;9.850;2023-07-13T11:24:14;98611.65;;;23.77;35.52
77323;BME280;66384;51.052;9.850;2023-07-13T11:26:53;98614.48;;;23.82;35.75
77323;BME280;66384;51.052;9.850;2023-07-13T11:29:36;98611.96;;;23.85;34.87
77323;BME280;66384;51.052;9.850;2023-07-13T11:35:07;98611.30;;;23.78;34.85
77323;BME280;66384;51.052;9.850;2023-07-13T11:37:43;98605.05;;;23.69;34.53
77323;BME280;66384;51.052;9.850;2023-07-13T11:40:17;98604.02;;;23.61;35.01
77323;BME280;66384;51.052;9.850;2023-07-13T11:42:48;98603.64;;;23.62;34.81
77323;BME280;66384;51.052;9.850;2023-07-13T11:45:24;98601.70;;;23.69;34.62
77323;BME280;66384;51.052;9.850;2023-07-13T11:48:23;98599.65;;;23.80;34.72
77323;BME280;66384;51.052;9.850;2023-07-13T11:50:58;98596.13;;;23.92;33.40
77323;BME280;66384;51.052;9.850;2023-07-13T11:53:34;98595.78;;;24.03;33.28
77323;BME280;66384;51.052;9.850;2023-07-13T11:56:09;98597.73;;;24.15;32.43
77323;BME280;66384;51.052;9.850;2023-07-13T11:58:41;98600.35;;;24.21;32.35
77323;BME280;66384;51.052;9.850;2023-07-13T12:01:19;98598.75;;;24.22;33.37
77323;BME280;66384;51.052;9.850;2023-07-13T12:03:52;98604.40;;;24.21;33.26
77323;BME280;66384;51.052;9.850;2023-07-13T12:06:30;98598.17;;;24.18;33.76
77323;BME280;66384;51.052;9.850;2023-07-13T12:09:08;98603.90;;;24.20;33.49
77323;BME280;66384;51.052;9.850;2023-07-13T12:11:43;98603.95;;;24.24;33.67
77323;BME280;66384;51.052;9.850;2023-07-13T12:14:17;98603.69;;;24.32;33.19
77323;BME280;66384;51.052;9.850;2023-07-13T12:16:49;98609.65;;;24.38;32.44
77323;BME280;66384;51.052;9.850;2023-07-13T12:19:23;98604.74;;;24.38;32.81
77323;BME280;66384;51.052;9.850;2023-07-13T12:21:57;98601.59;;;24.38;32.90
77323;BME280;66384;51.052;9.850;2023-07-13T12:24:30;98603.29;;;24.40;32.90
77323;BME280;66384;51.052;9.850;2023-07-13T12:27:04;98603.74;;;24.49;32.36
77323;BME280;66384;51.052;9.850;2023-07-13T12:29:36;98606.69;;;24.56;32.32
77323;BME280;66384;51.052;9.850;2023-07-13T12:32:14;98608.01;;;24.69;32.57
77323;BME280;66384;51.052;9.850;2023-07-13T12:34:57;98612.42;;;24.79;32.33
77323;BME280;66384;51.052;9.850;2023-07-13T12:37:29;98610.10;;;24.86;32.53
77323;BME280;66384;51.052;9.850;2023-07-13T12:40:01;98611.31;;;24.92;32.30
77323;BME280;66384;51.052;9.850;2023-07-13T12:42:35;98611.69;;;24.91;32.45
77323;BME280;66384;51.052;9.850;2023-07-13T12:45:19;98615.04;;;24.86;32.55
77323;BME280;66384;51.052;9.850;2023-07-13T12:47:56;98617.08;;;24.82;32.64
77323;BME280;66384;51.052;9.850;2023-07-13T12:50:36;98617.41;;;24.83;32.53
77323;BME280;66384;51.052;9.850;2023-07-13T12:53:15;98619.63;;;24.85;31.40
77323;BME280;66384;51.052;9.850;2023-07-13T12:55:50;98621.20;;;24.81;31.75
77323;BME280;66384;51.052;9.850;2023-07-13T12:58:27;98626.67;;;24.74;31.72
77323;BME280;66384;51.052;9.850;2023-07-13T13:01:01;98629.63;;;24.70;31.91
77323;BME280;66384;51.052;9.850;2023-07-13T13:03:35;98638.40;;;24.65;31.95
77323;BME280;66384;51.052;9.850;2023-07-13T13:06:19;98638.12;;;24.58;32.11
77323;BME280;66384;51.052;9.850;2023-07-13T13:08:53;98633.98;;;24.49;32.21
77323;BME280;66384;51.052;9.850;2023-07-13T13:11:26;98632.60;;;24.42;32.49
77323;BME280;66384;51.052;9.850;2023-07-13T13:13:59;98634.95;;;24.46;32.42
77323;BME280;66384;51.052;9.850;2023-07-13T13:16:33;98632.54;;;24.50;32.75
77323;BME280;66384;51.052;9.850;2023-07-13T13:19:18;98643.08;;;24.50;32.78
77323;BME280;66384;51.052;9.850;2023-07-13T13:21:52;98640.80;;;24.44;32.42
77323;BME280;66384;51.052;9.850;2023-07-13T13:24:26;98640.36;;;24.35;32.64
77323;BME280;66384;51.052;9.850;2023-07-13T13:26:58;98641.98;;;24.27;32.79
77323;BME280;66384;51.052;9.850;2023-07-13T13:29:32;98644.42;;;24.22;32.77
77323;BME280;66384;51.052;9.850;2023-07-13T13:32:09;98643.09;;;24.21;32.99
77323;BME280;66384;51.052;9.850;2023-07-13T13:34:41;98644.14;;;24.21;32.99
77323;BME280;66384;51.052;9.850;2023-07-13T13:37:19;98646.56;;;24.21;33.15
77323;BME280;66384;51.052;9.850;2023-07-13T13:39:51;98644.00;;;24.25;32.67